sensor_id;sensor_type;location;lat;lon;timestamp;pressure;altitude;pressure_sealevel;temperature;humidity
57885;BME280;43703;51.060;-0.086;2023-03-04T00:01:10;101514.17;;;3.82;51.31
57885;BME280;43703;51.060;-0.086;2023-03-04T00:03:35;101511.79;;;4.38;50.33
57885;BME280;43703;51.060;-0.086;2023-03-04T00:06:00;101510.72;;;4.70;50.81
57885;BME280;43703;51.060;-0.086;2023-03-04T00:08:26;101514.76;;;4.28;51.04
57885;BME280;43703;51.060;-0.086;2023-03-04T00:10:51;101511.16;;;4.56;50.92
57885;BME280;43703;51.060;-0.086;2023-03-04T00:13:16;101514.55;;;4.27;50.34
57885;BME280;43703;51.060;-0.086;2023-03-04T00:15:41;101511.62;;;4.05;50.56
57885;BME280;43703;51.060;-0.086;2023-03-04T00:18:06;101505.26;;;4.31;51.09
57885;BME280;43703;51.060;-0.086;2023-03-04T00:20:31;101508.53;;;3.77;50.51
57885;BME280;43703;51.060;-0.086;2023-03-04T00:22:56;101504.07;;;3.84;51.06
57885;BME280;43703;51.060;-0.086;2023-03-04T00:25:22;101508.59;;;2.94;52.36
57885;BME280;43703;51.060;-0.086;2023-03-04T00:27:47;101502.94;;;4.13;52.22
57885;BME280;43703;51.060;-0.086;2023-03-04T00:30:12;101504.55;;;3.28;52.16
57885;BME280;43703;51.060;-0.086;2023-03-04T00:32:37;101500.10;;;4.62;50.49
57885;BME280;43703;51.060;-0.086;2023-03-04T00:35:03;101503.14;;;3.03;52.02
57885;BME280;43703;51.060;-0.086;2023-03-04T00:37:27;101499.95;;;4.00;50.53
57885;BME280;43703;51.060;-0.086;2023-03-04T00:39:52;101498.17;;;4.05;50.21
57885;BME280;43703;51.060;-0.086;2023-03-04T00:42:22;101500.02;;;2.95;53.00
57885;BME280;43703;51.060;-0.086;2023-03-04T00:44:43;101501.38;;;2.60;52.86
57885;BME280;43703;51.060;-0.086;2023-03-04T00:47:08;101501.40;;;2.85;53.06
57885;BME280;43703;51.060;-0.086;2023-03-04T00:49:33;101492.56;;;4.11;51.86
57885;BME280;43703;51.060;-0.086;2023-03-04T00:51:58;101497.30;;;3.57;52.48
57885;BME280;43703;51.060;-0.086;2023-03-04T00:54:23;101496.93;;;3.65;52.54
57885;BME280;43703;51.060;-0.086;2023-03-04T00:56:48;101494.88;;;2.88;52.60
57885;BME280;43703;51.060;-0.086;2023-03-04T00:59:13;101497.35;;;3.61;51.67
57885;BME280;43703;51.060;-0.086;2023-03-04T01:01:39;101494.95;;;3.82;51.61
57885;BME280;43703;51.060;-0.086;2023-03-04T01:04:04;101500.29;;;3.91;51.46
57885;BME280;43703;51.060;-0.086;2023-03-04T01:06:29;101500.01;;;3.39;52.10
57885;BME280;43703;51.060;-0.086;2023-03-04T01:08:54;101505.50;;;2.97;53.01
57885;BME280;43703;51.060;-0.086;2023-03-04T01:11:19;101505.02;;;3.79;53.16
57885;BME280;43703;51.060;-0.086;2023-03-04T01:13:44;101503.51;;;4.01;52.25
57885;BME280;43703;51.060;-0.086;2023-03-04T01:16:10;101503.64;;;1.90;54.44
57885;BME280;43703;51.060;-0.086;2023-03-04T01:18:35;101501.59;;;3.53;53.16
57885;BME280;43703;51.060;-0.086;2023-03-04T01:21:00;101506.27;;;2.62;53.44
57885;BME280;43703;51.060;-0.086;2023-03-04T01:23:26;101499.14;;;2.32;54.40
57885;BME280;43703;51.060;-0.086;2023-03-04T01:25:51;101498.76;;;3.11;53.86
57885;BME280;43703;51.060;-0.086;2023-03-04T01:28:16;101503.17;;;2.82;53.99
57885;BME280;43703;51.060;-0.086;2023-03-04T01:30:41;101504.68;;;3.80;53.22
57885;BME280;43703;51.060;-0.086;2023-03-04T01:33:07;101500.51;;;3.53;53.28
57885;BME280;43703;51.060;-0.086;2023-03-04T01:35:32;101504.06;;;4.16;52.90
57885;BME280;43703;51.060;-0.086;2023-03-04T01:37:57;101497.40;;;4.31;51.08
57885;BME280;43703;51.060;-0.086;2023-03-04T01:40:22;101496.66;;;4.57;51.22
57885;BME280;43703;51.060;-0.086;2023-03-04T01:42:47;101495.20;;;4.12;51.33
57885;BME280;43703;51.060;-0.086;2023-03-04T01:45:14;101493.88;;;4.82;51.57
57885;BME280;43703;51.060;-0.086;2023-03-04T01:47:37;101495.95;;;4.40;51.47
57885;BME280;43703;51.060;-0.086;2023-03-04T01:50:06;101490.66;;;4.33;51.69
57885;BME280;43703;51.060;-0.086;2023-03-04T01:52:28;101487.09;;;4.02;51.21
57885;BME280;43703;51.060;-0.086;2023-03-04T01:54:53;101491.49;;;3.64;51.17
57885;BME280;43703;51.060;-0.086;2023-03-04T01:57:20;101485.00;;;4.06;51.71
57885;BME280;43703;51.060;-0.086;2023-03-04T01:59:44;101484.34;;;3.96;52.59
57885;BME280;43703;51.060;-0.086;2023-03-04T02:02:09;101482.41;;;3.87;51.98
57885;BME280;43703;51.060;-0.086;2023-03-04T02:04:34;101479.64;;;4.80;52.15
57885;BME280;43703;51.060;-0.086;2023-03-04T02:07:00;101482.50;;;4.30;51.75
57885;BME280;43703;51.060;-0.086;2023-03-04T02:09:24;101481.12;;;4.22;51.97
57885;BME280;43703;51.060;-0.086;2023-03-04T02:11:50;101476.67;;;4.60;52.43
57885;BME280;43703;51.060;-0.086;2023-03-04T02:14:16;101478.00;;;4.50;51.88
57885;BME280;43703;51.060;-0.086;2023-03-04T02:16:41;101473.85;;;4.64;51.09
57885;BME280;43703;51.060;-0.086;2023-03-04T02:19:12;101475.70;;;4.11;52.14
57885;BME280;43703;51.060;-0.086;2023-03-04T02:21:32;101472.91;;;4.58;50.22
57885;BME280;43703;51.060;-0.086;2023-03-04T02:24:02;101468.11;;;4.49;51.03
57885;BME280;43703;51.060;-0.086;2023-03-04T02:26:22;101471.92;;;4.03;52.57
57885;BME280;43703;51.060;-0.086;2023-03-04T02:28:48;101465.89;;;3.90;53.24
57885;BME280;43703;51.060;-0.086;2023-03-04T02:31:22;101464.76;;;4.05;53.08
57885;BME280;43703;51.060;-0.086;2023-03-04T02:33:37;101459.87;;;4.31;53.13
57885;BME280;43703;51.060;-0.086;2023-03-04T02:36:02;101456.65;;;4.61;52.27
57885;BME280;43703;51.060;-0.086;2023-03-04T02:38:27;101453.55;;;4.37;51.45
57885;BME280;43703;51.060;-0.086;2023-03-04T02:40:53;101451.18;;;4.40;52.30
57885;BME280;43703;51.060;-0.086;2023-03-04T02:43:17;101452.89;;;4.07;51.89
57885;BME280;43703;51.060;-0.086;2023-03-04T02:45:45;101447.40;;;4.25;52.44
57885;BME280;43703;51.060;-0.086;2023-03-04T02:48:09;101444.23;;;4.22;52.62
57885;BME280;43703;51.060;-0.086;2023-03-04T02:50:37;101446.62;;;3.29;53.08
57885;BME280;43703;51.060;-0.086;2023-03-04T02:52:59;101446.94;;;3.88;53.37
57885;BME280;43703;51.060;-0.086;2023-03-04T02:55:24;101445.48;;;3.89;53.35
57885;BME280;43703;51.060;-0.086;2023-03-04T02:57:49;101444.27;;;4.67;53.05
57885;BME280;43703;51.060;-0.086;2023-03-04T03:00:15;101440.80;;;5.18;51.52
57885;BME280;43703;51.060;-0.086;2023-03-04T03:02:40;101443.54;;;4.32;52.55
57885;BME280;43703;51.060;-0.086;2023-03-04T03:05:05;101440.50;;;3.35;52.14
57885;BME280;43703;51.060;-0.086;2023-03-04T03:07:30;101439.29;;;3.84;53.73
57885;BME280;43703;51.060;-0.086;2023-03-04T03:09:55;101440.19;;;4.14;53.34
57885;BME280;43703;51.060;-0.086;2023-03-04T03:12:20;101436.09;;;3.58;53.36
57885;BME280;43703;51.060;-0.086;2023-03-04T03:14:46;101437.11;;;3.96;54.11
57885;BME280;43703;51.060;-0.086;2023-03-04T03:17:11;101439.17;;;3.68;53.87
57885;BME280;43703;51.060;-0.086;2023-03-04T03:19:36;101430.38;;;4.66;53.81
57885;BME280;43703;51.060;-0.086;2023-03-04T03:22:03;101435.51;;;3.42;53.49
57885;BME280;43703;51.060;-0.086;2023-03-04T03:24:26;101432.73;;;3.19;53.53
57885;BME280;43703;51.060;-0.086;2023-03-04T03:26:51;101432.04;;;3.94;54.66
57885;BME280;43703;51.060;-0.086;2023-03-04T03:29:17;101433.34;;;3.48;53.90
57885;BME280;43703;51.060;-0.086;2023-03-04T03:31:42;101430.48;;;3.90;53.80
57885;BME280;43703;51.060;-0.086;2023-03-04T03:34:07;101433.30;;;3.77;53.55
57885;BME280;43703;51.060;-0.086;2023-03-04T03:36:32;101434.45;;;3.87;53.46
57885;BME280;43703;51.060;-0.086;2023-03-04T03:38:58;101430.96;;;3.57;54.06
57885;BME280;43703;51.060;-0.086;2023-03-04T03:41:23;101431.68;;;4.04;53.61
57885;BME280;43703;51.060;-0.086;2023-03-04T03:43:53;101429.95;;;3.16;53.28
57885;BME280;43703;51.060;-0.086;2023-03-04T03:46:13;101436.38;;;3.57;54.25
57885;BME280;43703;51.060;-0.086;2023-03-04T03:48:38;101436.14;;;4.09;54.03
57885;BME280;43703;51.060;-0.086;2023-03-04T03:51:03;101440.61;;;2.92;54.31
57885;BME280;43703;51.060;-0.086;2023-03-04T03:53:28;101439.29;;;4.27;53.50
57885;BME280;43703;51.060;-0.086;2023-03-04T03:55:53;101437.18;;;4.36;53.13
57885;BME280;43703;51.060;-0.086;2023-03-04T03:58:18;101436.65;;;4.34;52.83
57885;BME280;43703;51.060;-0.086;2023-03-04T04:00:43;101438.74;;;3.67;53.95
57885;BME280;43703;51.060;-0.086;2023-03-04T04:03:14;101439.09;;;3.65;53.83
57885;BME280;43703;51.060;-0.086;2023-03-04T04:05:34;101439.72;;;3.86;53.58
57885;BME280;43703;51.060;-0.086;2023-03-04T04:07:58;101439.39;;;3.81;54.08
57885;BME280;43703;51.060;-0.086;2023-03-04T04:10:24;101442.12;;;3.97;53.09
57885;BME280;43703;51.060;-0.086;2023-03-04T04:12:49;101444.70;;;4.07;53.14
57885;BME280;43703;51.060;-0.086;2023-03-04T04:15:14;101442.42;;;4.25;52.80
57885;BME280;43703;51.060;-0.086;2023-03-04T04:17:39;101445.46;;;3.91;53.11
57885;BME280;43703;51.060;-0.086;2023-03-04T04:20:06;101449.63;;;3.29;54.02
57885;BME280;43703;51.060;-0.086;2023-03-04T04:22:30;101450.23;;;2.74;55.16
57885;BME280;43703;51.060;-0.086;2023-03-04T04:24:55;101446.32;;;3.74;54.70
57885;BME280;43703;51.060;-0.086;2023-03-04T04:27:20;101447.70;;;3.80;54.19
57885;BME280;43703;51.060;-0.086;2023-03-04T04:29:45;101443.71;;;4.02;53.65
57885;BME280;43703;51.060;-0.086;2023-03-04T04:32:10;101443.29;;;4.23;53.39
57885;BME280;43703;51.060;-0.086;2023-03-04T04:34:36;101445.52;;;3.73;53.74
57885;BME280;43703;51.060;-0.086;2023-03-04T04:37:01;101447.22;;;3.03;53.96
57885;BME280;43703;51.060;-0.086;2023-03-04T04:39:26;101446.72;;;4.05;53.93
57885;BME280;43703;51.060;-0.086;2023-03-04T04:41:51;101449.26;;;3.43;53.85
57885;BME280;43703;51.060;-0.086;2023-03-04T04:44:16;101447.54;;;2.90;54.22
57885;BME280;43703;51.060;-0.086;2023-03-04T04:46:41;101447.48;;;3.20;54.10
57885;BME280;43703;51.060;-0.086;2023-03-04T04:49:07;101453.17;;;2.74;54.30
57885;BME280;43703;51.060;-0.086;2023-03-04T04:51:32;101450.18;;;2.69;55.10
57885;BME280;43703;51.060;-0.086;2023-03-04T04:53:58;101447.68;;;3.02;54.70
57885;BME280;43703;51.060;-0.086;2023-03-04T04:56:23;101448.06;;;3.91;54.36
57885;BME280;43703;51.060;-0.086;2023-03-04T04:58:47;101449.28;;;4.17;53.50
57885;BME280;43703;51.060;-0.086;2023-03-04T05:01:12;101452.75;;;3.32;53.67
57885;BME280;43703;51.060;-0.086;2023-03-04T05:03:38;101454.07;;;3.79;54.69
57885;BME280;43703;51.060;-0.086;2023-03-04T05:06:04;101447.07;;;4.04;53.51
57885;BME280;43703;51.060;-0.086;2023-03-04T05:08:27;101447.95;;;3.78;53.85
57885;BME280;43703;51.060;-0.086;2023-03-04T05:10:52;101449.75;;;3.76;53.96
57885;BME280;43703;51.060;-0.086;2023-03-04T05:13:17;101448.55;;;3.78;54.07
57885;BME280;43703;51.060;-0.086;2023-03-04T05:15:42;101453.20;;;3.60;54.89
57885;BME280;43703;51.060;-0.086;2023-03-04T05:18:08;101455.15;;;3.59;54.13
57885;BME280;43703;51.060;-0.086;2023-03-04T05:20:33;101456.38;;;3.40;54.62
57885;BME280;43703;51.060;-0.086;2023-03-04T05:22:58;101457.33;;;3.84;53.49
57885;BME280;43703;51.060;-0.086;2023-03-04T05:25:23;101457.87;;;3.67;54.66
57885;BME280;43703;51.060;-0.086;2023-03-04T05:27:48;101461.19;;;3.72;54.48
57885;BME280;43703;51.060;-0.086;2023-03-04T05:30:19;101462.04;;;4.21;54.39
57885;BME280;43703;51.060;-0.086;2023-03-04T05:32:39;101464.08;;;3.71;54.65
57885;BME280;43703;51.060;-0.086;2023-03-04T05:35:05;101457.03;;;4.53;53.81
57885;BME280;43703;51.060;-0.086;2023-03-04T05:37:29;101462.63;;;4.24;53.49
57885;BME280;43703;51.060;-0.086;2023-03-04T05:39:55;101462.31;;;4.20;53.89
57885;BME280;43703;51.060;-0.086;2023-03-04T05:42:19;101464.95;;;2.65;55.73
57885;BME280;43703;51.060;-0.086;2023-03-04T05:44:44;101464.88;;;3.91;54.66
57885;BME280;43703;51.060;-0.086;2023-03-04T05:47:10;101461.86;;;2.88;54.19
57885;BME280;43703;51.060;-0.086;2023-03-04T05:49:34;101459.03;;;3.34;54.31
57885;BME280;43703;51.060;-0.086;2023-03-04T05:52:00;101463.40;;;4.20;53.43
57885;BME280;43703;51.060;-0.086;2023-03-04T05:54:25;101463.58;;;3.38;53.66
57885;BME280;43703;51.060;-0.086;2023-03-04T05:56:50;101462.95;;;4.04;53.81
57885;BME280;43703;51.060;-0.086;2023-03-04T05:59:15;101465.12;;;3.85;52.98
57885;BME280;43703;51.060;-0.086;2023-03-04T06:01:40;101468.98;;;3.58;53.79
57885;BME280;43703;51.060;-0.086;2023-03-04T06:04:05;101462.22;;;3.77;54.37
57885;BME280;43703;51.060;-0.086;2023-03-04T06:06:30;101468.70;;;4.17;53.36
57885;BME280;43703;51.060;-0.086;2023-03-04T06:08:55;101467.37;;;4.50;53.77
57885;BME280;43703;51.060;-0.086;2023-03-04T06:11:20;101468.90;;;4.43;53.56
57885;BME280;43703;51.060;-0.086;2023-03-04T06:13:45;101466.12;;;4.28;53.83
57885;BME280;43703;51.060;-0.086;2023-03-04T06:16:15;101468.50;;;3.98;53.80
57885;BME280;43703;51.060;-0.086;2023-03-04T06:18:36;101467.05;;;4.49;54.38
57885;BME280;43703;51.060;-0.086;2023-03-04T06:21:02;101471.64;;;4.03;54.05
57885;BME280;43703;51.060;-0.086;2023-03-04T06:23:26;101466.51;;;4.76;53.55
57885;BME280;43703;51.060;-0.086;2023-03-04T06:25:51;101467.83;;;4.19;54.17
57885;BME280;43703;51.060;-0.086;2023-03-04T06:28:16;101467.00;;;3.58;54.23
57885;BME280;43703;51.060;-0.086;2023-03-04T06:30:41;101466.68;;;4.10;53.92
57885;BME280;43703;51.060;-0.086;2023-03-04T06:33:06;101466.43;;;3.59;53.72
57885;BME280;43703;51.060;-0.086;2023-03-04T06:35:31;101464.09;;;4.18;54.69
57885;BME280;43703;51.060;-0.086;2023-03-04T06:37:56;101462.62;;;3.49;54.03
57885;BME280;43703;51.060;-0.086;2023-03-04T06:40:21;101465.32;;;3.21;54.06
57885;BME280;43703;51.060;-0.086;2023-03-04T06:42:47;101464.59;;;3.17;54.87
57885;BME280;43703;51.060;-0.086;2023-03-04T06:45:12;101469.48;;;4.16;54.61
57885;BME280;43703;51.060;-0.086;2023-03-04T06:47:37;101474.36;;;3.84;54.42
57885;BME280;43703;51.060;-0.086;2023-03-04T06:50:02;101475.39;;;3.95;55.29
57885;BME280;43703;51.060;-0.086;2023-03-04T06:52:27;101480.51;;;3.06;55.00
57885;BME280;43703;51.060;-0.086;2023-03-04T06:54:52;101479.64;;;3.35;54.70
57885;BME280;43703;51.060;-0.086;2023-03-04T06:57:18;101485.29;;;3.78;54.66
57885;BME280;43703;51.060;-0.086;2023-03-04T06:59:43;101485.03;;;4.07;55.68
57885;BME280;43703;51.060;-0.086;2023-03-04T07:02:10;101492.67;;;4.12;54.21
57885;BME280;43703;51.060;-0.086;2023-03-04T07:04:33;101492.92;;;4.34;54.63
57885;BME280;43703;51.060;-0.086;2023-03-04T07:06:58;101496.48;;;4.46;54.77
57885;BME280;43703;51.060;-0.086;2023-03-04T07:09:23;101495.09;;;3.85;53.94
57885;BME280;43703;51.060;-0.086;2023-03-04T07:11:48;101496.95;;;4.19;54.91
57885;BME280;43703;51.060;-0.086;2023-03-04T07:14:13;101500.73;;;3.23;55.92
57885;BME280;43703;51.060;-0.086;2023-03-04T07:16:38;101501.79;;;4.16;54.57
57885;BME280;43703;51.060;-0.086;2023-03-04T07:19:03;101507.74;;;3.73;55.23
57885;BME280;43703;51.060;-0.086;2023-03-04T07:21:29;101502.69;;;3.83;55.04
57885;BME280;43703;51.060;-0.086;2023-03-04T07:23:53;101504.75;;;3.83;53.83
57885;BME280;43703;51.060;-0.086;2023-03-04T07:26:19;101498.32;;;4.46;53.62
57885;BME280;43703;51.060;-0.086;2023-03-04T07:28:44;101501.32;;;3.92;54.27
57885;BME280;43703;51.060;-0.086;2023-03-04T07:33:34;101502.07;;;3.98;53.92
57885;BME280;43703;51.060;-0.086;2023-03-04T07:35:59;101506.37;;;4.04;54.00
57885;BME280;43703;51.060;-0.086;2023-03-04T07:38:24;101513.66;;;3.75;54.58
57885;BME280;43703;51.060;-0.086;2023-03-04T07:40:54;101515.95;;;3.44;55.07
57885;BME280;43703;51.060;-0.086;2023-03-04T07:43:14;101511.67;;;3.83;55.30
57885;BME280;43703;51.060;-0.086;2023-03-04T07:45:39;101513.18;;;3.91;54.99
57885;BME280;43703;51.060;-0.086;2023-03-04T07:48:05;101515.82;;;4.32;54.46
57885;BME280;43703;51.060;-0.086;2023-03-04T07:50:30;101520.69;;;4.45;54.15
57885;BME280;43703;51.060;-0.086;2023-03-04T07:52:55;101516.18;;;4.16;53.01
57885;BME280;43703;51.060;-0.086;2023-03-04T07:55:20;101522.56;;;4.37;54.63
57885;BME280;43703;51.060;-0.086;2023-03-04T07:57:46;101522.21;;;4.33;54.23
57885;BME280;43703;51.060;-0.086;2023-03-04T08:00:13;101524.46;;;3.73;54.11
57885;BME280;43703;51.060;-0.086;2023-03-04T08:02:35;101530.38;;;3.76;54.85
57885;BME280;43703;51.060;-0.086;2023-03-04T08:05:00;101526.86;;;4.68;54.43
57885;BME280;43703;51.060;-0.086;2023-03-04T08:07:26;101529.57;;;4.16;55.15
57885;BME280;43703;51.060;-0.086;2023-03-04T08:09:50;101527.96;;;4.39;53.95
57885;BME280;43703;51.060;-0.086;2023-03-04T08:12:16;101528.00;;;4.32;54.24
57885;BME280;43703;51.060;-0.086;2023-03-04T08:14:41;101526.13;;;4.73;54.97
57885;BME280;43703;51.060;-0.086;2023-03-04T08:17:06;101528.58;;;4.47;53.92
57885;BME280;43703;51.060;-0.086;2023-03-04T08:19:31;101530.27;;;4.05;53.98
57885;BME280;43703;51.060;-0.086;2023-03-04T08:21:56;101532.42;;;3.91;54.83
57885;BME280;43703;51.060;-0.086;2023-03-04T08:24:21;101531.04;;;3.91;54.58
57885;BME280;43703;51.060;-0.086;2023-03-04T08:26:47;101527.94;;;4.68;54.18
57885;BME280;43703;51.060;-0.086;2023-03-04T08:29:14;101533.33;;;3.99;54.12
57885;BME280;43703;51.060;-0.086;2023-03-04T08:31:36;101537.99;;;4.16;54.65
57885;BME280;43703;51.060;-0.086;2023-03-04T08:34:02;101538.78;;;4.83;53.98
57885;BME280;43703;51.060;-0.086;2023-03-04T08:36:26;101542.91;;;4.59;53.54
57885;BME280;43703;51.060;-0.086;2023-03-04T08:38:51;101543.05;;;4.81;54.29
57885;BME280;43703;51.060;-0.086;2023-03-04T08:41:16;101546.97;;;4.14;53.87
57885;BME280;43703;51.060;-0.086;2023-03-04T08:43:42;101546.85;;;4.52;53.47
57885;BME280;43703;51.060;-0.086;2023-03-04T08:46:07;101546.89;;;4.33;54.49
57885;BME280;43703;51.060;-0.086;2023-03-04T08:48:32;101545.86;;;4.62;54.42
57885;BME280;43703;51.060;-0.086;2023-03-04T08:50:57;101546.36;;;4.28;53.16
57885;BME280;43703;51.060;-0.086;2023-03-04T08:53:22;101539.03;;;5.44;53.62
57885;BME280;43703;51.060;-0.086;2023-03-04T08:55:47;101543.01;;;4.43;53.03
57885;BME280;43703;51.060;-0.086;2023-03-04T08:58:12;101543.60;;;4.32;53.14
57885;BME280;43703;51.060;-0.086;2023-03-04T09:00:41;101537.05;;;4.79;53.68
57885;BME280;43703;51.060;-0.086;2023-03-04T09:03:03;101539.72;;;4.49;53.99
57885;BME280;43703;51.060;-0.086;2023-03-04T09:05:28;101531.51;;;4.71;54.15
57885;BME280;43703;51.060;-0.086;2023-03-04T09:07:53;101529.17;;;5.29;54.51
57885;BME280;43703;51.060;-0.086;2023-03-04T09:10:18;101532.19;;;4.86;54.08
57885;BME280;43703;51.060;-0.086;2023-03-04T09:12:43;101534.44;;;4.75;54.70
57885;BME280;43703;51.060;-0.086;2023-03-04T09:15:09;101533.53;;;5.65;54.26
57885;BME280;43703;51.060;-0.086;2023-03-04T09:17:34;101534.14;;;5.56;55.49
57885;BME280;43703;51.060;-0.086;2023-03-04T09:20:00;101536.26;;;5.57;56.38
57885;BME280;43703;51.060;-0.086;2023-03-04T09:22:24;101534.02;;;5.05;56.26
57885;BME280;43703;51.060;-0.086;2023-03-04T09:24:49;101532.60;;;5.25;57.19
57885;BME280;43703;51.060;-0.086;2023-03-04T09:27:14;101531.80;;;5.52;57.05
57885;BME280;43703;51.060;-0.086;2023-03-04T09:29:39;101529.92;;;5.89;56.26
57885;BME280;43703;51.060;-0.086;2023-03-04T09:32:05;101533.71;;;5.81;57.25
57885;BME280;43703;51.060;-0.086;2023-03-04T09:34:29;101532.96;;;6.29;55.63
57885;BME280;43703;51.060;-0.086;2023-03-04T09:36:54;101535.91;;;5.06;57.08
57885;BME280;43703;51.060;-0.086;2023-03-04T09:39:19;101530.77;;;6.00;55.70
57885;BME280;43703;51.060;-0.086;2023-03-04T09:41:46;101533.10;;;6.31;55.35
57885;BME280;43703;51.060;-0.086;2023-03-04T09:44:18;101534.12;;;5.77;55.19
57885;BME280;43703;51.060;-0.086;2023-03-04T09:46:37;101534.52;;;5.86;56.13
57885;BME280;43703;51.060;-0.086;2023-03-04T09:49:00;101527.17;;;6.15;55.64
57885;BME280;43703;51.060;-0.086;2023-03-04T09:51:39;101529.99;;;4.99;56.26
57885;BME280;43703;51.060;-0.086;2023-03-04T09:54:01;101530.56;;;4.94;57.80
57885;BME280;43703;51.060;-0.086;2023-03-04T09:56:15;101529.32;;;5.06;56.89
57885;BME280;43703;51.060;-0.086;2023-03-04T09:58:47;101532.62;;;5.49;58.48
57885;BME280;43703;51.060;-0.086;2023-03-04T10:01:11;101532.49;;;5.54;59.33
57885;BME280;43703;51.060;-0.086;2023-03-04T10:03:37;101533.23;;;5.52;58.88
57885;BME280;43703;51.060;-0.086;2023-03-04T10:06:05;101530.75;;;6.26;58.38
57885;BME280;43703;51.060;-0.086;2023-03-04T10:08:31;101529.47;;;6.74;57.74
57885;BME280;43703;51.060;-0.086;2023-03-04T10:10:48;101526.04;;;7.64;56.98
57885;BME280;43703;51.060;-0.086;2023-03-04T10:13:15;101531.79;;;8.07;52.01
57885;BME280;43703;51.060;-0.086;2023-03-04T10:15:39;101531.18;;;11.24;52.30
57885;BME280;43703;51.060;-0.086;2023-03-04T10:18:06;101531.71;;;11.64;47.05
57885;BME280;43703;51.060;-0.086;2023-03-04T10:20:32;101534.14;;;10.34;45.98
57885;BME280;43703;51.060;-0.086;2023-03-04T10:22:52;101532.85;;;9.90;47.11
57885;BME280;43703;51.060;-0.086;2023-03-04T10:25:19;101533.33;;;9.41;46.81
57885;BME280;43703;51.060;-0.086;2023-03-04T10:27:49;101530.82;;;8.61;47.31
57885;BME280;43703;51.060;-0.086;2023-03-04T10:30:16;101530.80;;;8.24;48.27
57885;BME280;43703;51.060;-0.086;2023-03-04T10:32:34;101526.25;;;8.13;49.23
57885;BME280;43703;51.060;-0.086;2023-03-04T10:35:00;101527.67;;;7.14;49.20
57885;BME280;43703;51.060;-0.086;2023-03-04T10:39:50;101521.96;;;6.44;51.73
57885;BME280;43703;51.060;-0.086;2023-03-04T10:42:23;101520.14;;;6.82;52.17
57885;BME280;43703;51.060;-0.086;2023-03-04T10:44:43;101523.92;;;6.29;53.17
57885;BME280;43703;51.060;-0.086;2023-03-04T10:47:08;101520.66;;;6.85;52.43
57885;BME280;43703;51.060;-0.086;2023-03-04T10:49:30;101519.16;;;6.34;52.70
57885;BME280;43703;51.060;-0.086;2023-03-04T10:52:02;101517.49;;;6.40;52.44
57885;BME280;43703;51.060;-0.086;2023-03-04T10:54:26;101516.83;;;6.58;53.14
57885;BME280;43703;51.060;-0.086;2023-03-04T10:56:55;101516.31;;;6.96;52.22
57885;BME280;43703;51.060;-0.086;2023-03-04T11:01:35;101504.68;;;7.08;51.96
57885;BME280;43703;51.060;-0.086;2023-03-04T11:04:00;101507.80;;;6.64;51.09
57885;BME280;43703;51.060;-0.086;2023-03-04T11:06:25;101505.69;;;7.05;51.96
57885;BME280;43703;51.060;-0.086;2023-03-04T11:08:55;101502.40;;;6.97;50.97
57885;BME280;43703;51.060;-0.086;2023-03-04T11:11:21;101498.26;;;6.58;51.19
57885;BME280;43703;51.060;-0.086;2023-03-04T11:13:49;101495.11;;;6.72;51.89
57885;BME280;43703;51.060;-0.086;2023-03-04T11:18:38;101495.01;;;6.78;49.08
57885;BME280;43703;51.060;-0.086;2023-03-04T11:20:56;101489.08;;;6.97;50.98
57885;BME280;43703;51.060;-0.086;2023-03-04T11:23:28;101489.44;;;7.11;48.63
57885;BME280;43703;51.060;-0.086;2023-03-04T11:25:48;101498.51;;;6.64;49.50
57885;BME280;43703;51.060;-0.086;2023-03-04T11:28:14;101493.20;;;6.96;48.75
57885;BME280;43703;51.060;-0.086;2023-03-04T11:30:40;101490.23;;;7.12;50.29
57885;BME280;43703;51.060;-0.086;2023-03-04T11:33:11;101485.58;;;7.28;50.09
57885;BME280;43703;51.060;-0.086;2023-03-04T11:35:31;101483.92;;;7.51;50.20
57885;BME280;43703;51.060;-0.086;2023-03-04T11:37:58;101482.99;;;7.09;49.86
57885;BME280;43703;51.060;-0.086;2023-03-04T11:40:25;101483.33;;;6.86;47.34
57885;BME280;43703;51.060;-0.086;2023-03-04T11:42:45;101483.67;;;6.28;48.72
57885;BME280;43703;51.060;-0.086;2023-03-04T11:45:11;101479.36;;;7.71;50.38
57885;BME280;43703;51.060;-0.086;2023-03-04T11:47:41;101473.80;;;7.05;50.12
57885;BME280;43703;51.060;-0.086;2023-03-04T11:50:08;101472.48;;;7.33;50.22
57885;BME280;43703;51.060;-0.086;2023-03-04T11:52:35;101471.22;;;7.78;49.52
57885;BME280;43703;51.060;-0.086;2023-03-04T11:55:01;101472.76;;;7.30;48.75
57885;BME280;43703;51.060;-0.086;2023-03-04T11:57:22;101474.97;;;6.87;49.20
57885;BME280;43703;51.060;-0.086;2023-03-04T11:59:45;101470.28;;;7.69;48.59
57885;BME280;43703;51.060;-0.086;2023-03-04T12:02:11;101471.61;;;7.06;48.98
57885;BME280;43703;51.060;-0.086;2023-03-04T12:04:39;101470.41;;;7.07;49.85
57885;BME280;43703;51.060;-0.086;2023-03-04T12:07:05;101465.55;;;6.03;51.62
57885;BME280;43703;51.060;-0.086;2023-03-04T12:09:29;101465.55;;;7.23;50.74
57885;BME280;43703;51.060;-0.086;2023-03-04T12:11:57;101464.32;;;6.95;50.57
57885;BME280;43703;51.060;-0.086;2023-03-04T12:14:18;101467.50;;;6.78;50.98
57885;BME280;43703;51.060;-0.086;2023-03-04T12:19:09;101457.27;;;7.81;49.99
57885;BME280;43703;51.060;-0.086;2023-03-04T12:21:37;101458.04;;;6.95;50.69
57885;BME280;43703;51.060;-0.086;2023-03-04T12:24:07;101454.13;;;6.26;51.00
57885;BME280;43703;51.060;-0.086;2023-03-04T12:26:22;101451.92;;;7.12;50.86
57885;BME280;43703;51.060;-0.086;2023-03-04T12:28:47;101448.29;;;7.20;50.40
57885;BME280;43703;51.060;-0.086;2023-03-04T12:31:17;101445.02;;;7.69;50.11
57885;BME280;43703;51.060;-0.086;2023-03-04T12:33:37;101441.12;;;7.40;50.54
57885;BME280;43703;51.060;-0.086;2023-03-04T12:36:02;101444.98;;;6.99;49.88
57885;BME280;43703;51.060;-0.086;2023-03-04T12:38:29;101443.11;;;6.28;51.18
57885;BME280;43703;51.060;-0.086;2023-03-04T12:40:55;101443.70;;;6.42;49.99
57885;BME280;43703;51.060;-0.086;2023-03-04T12:43:19;101435.99;;;5.60;50.53
57885;BME280;43703;51.060;-0.086;2023-03-04T12:45:41;101435.42;;;6.82;50.77
57885;BME280;43703;51.060;-0.086;2023-03-04T12:48:05;101431.35;;;5.83;51.04
57885;BME280;43703;51.060;-0.086;2023-03-04T12:50:32;101426.65;;;5.97;51.29